Herstmonceux, United Kingdom
Current Conditions -  °F | °C
As of 10:20 AM on Saturday 22 Nov 2014 (Local Time) from EGKA Reporting Station
Light Rain Light Rain  
Wind Chill: 57°   Ceiling: 2800
Heat Index: 57°   Visibility: 0.75mi
Dew Point: 55°   Wind: 3mph
Humidity: 94%   Direction: 110°ESE
Pressure: 29.91"   Gusts: NA
Location:  50.89°N, 0.32°E
Report Text: EGKA 221020Z 11003KT 1200 -RA BR SCT009 BKN028 14/13 Q1013
Loading
Personal Weather Stations






























Interactive Weather Map New forecast layout! Learn more

10-Day Weather Forecast

Advertisements
Track Severe Weather on mobile